Time,TemperatureF,DewpointF,PressureIn,WindDirection,WindDirectionDegrees,WindSpeedMPH,WindSpeedGustMPH,Humidity,HourlyPrecipIn,Conditions,Clouds,dailyrainin,SoftwareType,DateUTC
2013-05-03 00:03:00,56.0,44.0,30.35,SSE,150,3.0,6.0,65,0.00,,,0.00,,2013-05-03 04:03:00,
2013-05-03 00:13:00,56.0,44.0,30.35,SSE,150,3.0,6.0,65,0.00,,,0.00,,2013-05-03 04:13:00,
2013-05-03 00:23:00,56.0,45.0,30.35,SSE,163,0.0,3.0,66,0.00,,,0.00,,2013-05-03 04:23:00,
2013-05-03 00:32:00,55.0,44.0,30.35,SE,137,0.0,5.0,67,0.00,,,0.00,,2013-05-03 04:32:00,
2013-05-03 00:43:00,55.0,44.0,30.35,SE,137,0.0,5.0,67,0.00,,,0.00,,2013-05-03 04:43:00,
2013-05-03 00:53:00,55.0,44.0,30.36,South,191,0.0,3.0,67,0.00,,,0.00,,2013-05-03 04:53:00,
2013-05-03 01:03:00,54.0,43.0,30.37,East,98,0.0,3.0,66,0.00,,,0.00,,2013-05-03 05:03:00,
2013-05-03 01:12:00,54.0,43.0,30.37,East,98,0.0,3.0,66,0.00,,,0.00,,2013-05-03 05:12:00,
2013-05-03 01:22:00,54.0,43.0,30.37,East,97,0.0,3.0,65,0.00,,,0.00,,2013-05-03 05:22:00,
2013-05-03 01:32:00,54.0,42.0,30.37,East,84,0.0,3.0,64,0.00,,,0.00,,2013-05-03 05:32:00,
2013-05-03 01:42:00,54.0,42.0,30.37,East,84,0.0,3.0,64,0.00,,,0.00,,2013-05-03 05:42:00,
2013-05-03 01:52:00,54.0,42.0,30.37,East,88,1.0,5.0,63,0.00,,,0.00,,2013-05-03 05:52:00,
2013-05-03 02:02:00,54.0,43.0,30.38,SE,134,0.0,3.0,65,0.00,,,0.00,,2013-05-03 06:02:00,
2013-05-03 02:12:00,54.0,43.0,30.38,SE,134,0.0,3.0,65,0.00,,,0.00,,2013-05-03 06:12:00,
2013-05-03 02:21:00,54.0,44.0,30.37,SSE,151,1.0,5.0,68,0.00,,,0.00,,2013-05-03 06:21:00,
2013-05-03 02:32:00,54.0,45.0,30.38,ESE,115,0.0,5.0,71,0.00,,,0.00,,2013-05-03 06:32:00,
2013-05-03 02:42:00,54.0,45.0,30.38,ESE,115,0.0,5.0,71,0.00,,,0.00,,2013-05-03 06:42:00,
2013-05-03 02:52:00,53.0,45.0,30.38,SE,136,1.0,7.0,73,0.00,,,0.00,,2013-05-03 06:52:00,
2013-05-03 03:02:00,53.0,45.0,30.39,South,181,1.0,3.0,74,0.00,,,0.00,,2013-05-03 07:02:00,
2013-05-03 03:11:00,53.0,45.0,30.39,South,181,1.0,3.0,74,0.00,,,0.00,,2013-05-03 07:11:00,
2013-05-03 03:22:00,53.0,45.0,30.38,SE,143,1.0,6.0,73,0.00,,,0.00,,2013-05-03 07:22:00,
2013-05-03 03:32:00,53.0,44.0,30.39,SE,125,1.0,3.0,71,0.00,,,0.00,,2013-05-03 07:32:00,
2013-05-03 03:42:00,53.0,44.0,30.39,SE,125,1.0,3.0,71,0.00,,,0.00,,2013-05-03 07:42:00,
2013-05-03 03:52:00,53.0,42.0,30.39,East,81,2.0,8.0,65,0.00,,,0.00,,2013-05-03 07:52:00,
2013-05-03 04:02:00,53.0,39.0,30.40,SSE,160,0.0,11.0,60,0.00,,,0.00,,2013-05-03 08:02:00,
2013-05-03 04:12:00,53.0,39.0,30.40,SSE,160,0.0,11.0,60,0.00,,,0.00,,2013-05-03 08:12:00,
2013-05-03 04:21:00,53.0,39.0,30.40,SE,140,1.0,5.0,59,0.00,,,0.00,,2013-05-03 08:21:00,
2013-05-03 04:32:00,53.0,41.0,30.40,SSE,158,1.0,8.0,63,0.00,,,0.00,,2013-05-03 08:32:00,
2013-05-03 04:42:00,53.0,41.0,30.40,SSE,158,1.0,8.0,63,0.00,,,0.00,,2013-05-03 08:42:00,
2013-05-03 04:52:00,52.0,39.0,30.40,East,96,1.0,8.0,61,0.00,,,0.00,,2013-05-03 08:52:00,
2013-05-03 05:01:00,52.0,39.0,30.40,ESE,120,0.0,6.0,60,0.00,,,0.00,,2013-05-03 09:01:00,
2013-05-03 05:12:00,52.0,39.0,30.40,ESE,120,0.0,6.0,60,0.00,,,0.00,,2013-05-03 09:12:00,
2013-05-03 05:21:00,52.0,38.0,30.40,East,100,1.0,5.0,59,0.00,,,0.00,,2013-05-03 09:21:00,
2013-05-03 05:33:00,51.0,36.0,30.41,SE,145,2.0,6.0,57,0.00,,,0.00,,2013-05-03 09:33:00,
2013-05-03 05:42:00,51.0,36.0,30.41,SE,145,2.0,6.0,57,0.00,,,0.00,,2013-05-03 09:42:00,
2013-05-03 05:52:00,51.0,36.0,30.42,ENE,63,2.0,7.0,57,0.00,,,0.00,,2013-05-03 09:52:00,
2013-05-03 06:03:00,51.0,37.0,30.42,ENE,71,1.0,4.0,58,0.00,,,0.00,,2013-05-03 10:03:00,
2013-05-03 06:13:00,51.0,37.0,30.42,ENE,71,1.0,4.0,58,0.00,,,0.00,,2013-05-03 10:13:00,
2013-05-03 06:22:00,51.0,36.0,30.42,NE,47,2.0,7.0,56,0.00,,,0.00,,2013-05-03 10:22:00,
2013-05-03 06:32:00,51.0,36.0,30.42,NW,305,1.0,7.0,56,0.00,,,0.00,,2013-05-03 10:32:00,
2013-05-03 06:42:00,51.0,36.0,30.42,NW,305,1.0,7.0,56,0.00,,,0.00,,2013-05-03 10:42:00,
2013-05-03 06:52:00,51.0,36.0,30.42,ESE,110,1.0,6.0,56,0.00,,,0.00,,2013-05-03 10:52:00,
2013-05-03 07:02:00,51.0,36.0,30.43,SSE,160,1.0,10.0,57,0.00,,,0.00,,2013-05-03 11:02:00,
2013-05-03 07:11:00,51.0,36.0,30.43,SSE,160,1.0,10.0,57,0.00,,,0.00,,2013-05-03 11:11:00,
2013-05-03 07:22:00,52.0,37.0,30.43,ESE,110,3.0,9.0,56,0.00,,,0.00,,2013-05-03 11:22:00,
2013-05-03 07:32:00,53.0,37.0,30.43,SE,124,4.0,9.0,55,0.00,,,0.00,,2013-05-03 11:32:00,
2013-05-03 07:42:00,53.0,37.0,30.43,SE,124,4.0,9.0,55,0.00,,,0.00,,2013-05-03 11:42:00,
2013-05-03 07:52:00,53.0,37.0,30.43,East,86,3.0,7.0,54,0.00,,,0.00,,2013-05-03 11:52:00,
2013-05-03 08:02:00,53.0,37.0,30.43,SE,139,3.0,9.0,54,0.00,,,0.00,,2013-05-03 12:02:00,
2013-05-03 08:12:00,53.0,37.0,30.43,SE,139,3.0,9.0,54,0.00,,,0.00,,2013-05-03 12:12:00,
2013-05-03 08:22:00,54.0,38.0,30.43,East,82,1.0,15.0,54,0.00,,,0.00,,2013-05-03 12:22:00,
2013-05-03 08:32:00,54.0,37.0,30.43,ESE,117,1.0,7.0,52,0.00,,,0.00,,2013-05-03 12:32:00,
2013-05-03 08:42:00,54.0,37.0,30.43,ESE,117,1.0,7.0,52,0.00,,,0.00,,2013-05-03 12:42:00,
2013-05-03 08:52:00,54.0,37.0,30.43,SSW,195,2.0,11.0,52,0.00,,,0.00,,2013-05-03 12:52:00,
2013-05-03 09:01:00,55.0,38.0,30.44,East,100,2.0,8.0,52,0.00,,,0.00,,2013-05-03 13:01:00,
2013-05-03 09:11:00,55.0,38.0,30.44,East,100,2.0,8.0,52,0.00,,,0.00,,2013-05-03 13:11:00,
2013-05-03 09:22:00,55.0,38.0,30.44,SSE,158,3.0,9.0,52,0.00,,,0.00,,2013-05-03 13:22:00,
2013-05-03 09:32:00,55.0,37.0,30.44,ESE,103,3.0,8.0,50,0.00,,,0.00,,2013-05-03 13:32:00,
2013-05-03 09:42:00,55.0,37.0,30.44,ESE,103,3.0,8.0,50,0.00,,,0.00,,2013-05-03 13:42:00,
2013-05-03 09:52:00,56.0,37.0,30.44,WNW,284,3.0,7.0,49,0.00,,,0.00,,2013-05-03 13:52:00,
2013-05-03 10:02:00,56.0,37.0,30.44,NE,45,2.0,8.0,48,0.00,,,0.00,,2013-05-03 14:02:00,
2013-05-03 10:11:00,56.0,37.0,30.44,NE,45,2.0,8.0,48,0.00,,,0.00,,2013-05-03 14:11:00,
2013-05-03 10:22:00,57.0,38.0,30.44,NE,36,3.0,9.0,48,0.00,,,0.00,,2013-05-03 14:22:00,
2013-05-03 10:32:00,58.0,38.0,30.44,SE,139,1.0,5.0,47,0.00,,,0.00,,2013-05-03 14:32:00,
2013-05-03 10:42:00,58.0,38.0,30.44,SE,139,1.0,5.0,47,0.00,,,0.00,,2013-05-03 14:42:00,
2013-05-03 10:52:00,57.0,38.0,30.43,NNW,328,1.0,7.0,48,0.00,,,0.00,,2013-05-03 14:52:00,
2013-05-03 11:01:00,58.0,38.0,30.43,North,352,4.0,10.0,47,0.00,,,0.00,,2013-05-03 15:01:00,
2013-05-03 11:11:00,58.0,38.0,30.43,North,352,4.0,10.0,47,0.00,,,0.00,,2013-05-03 15:11:00,
2013-05-03 11:22:00,58.0,38.0,30.43,ENE,70,3.0,8.0,47,0.00,,,0.00,,2013-05-03 15:22:00,
2013-05-03 11:32:00,58.0,37.0,30.43,NNE,23,1.0,9.0,46,0.00,,,0.00,,2013-05-03 15:32:00,
2013-05-03 11:43:00,58.0,37.0,30.43,NNE,23,1.0,9.0,46,0.00,,,0.00,,2013-05-03 15:43:00,
2013-05-03 11:53:00,59.0,38.0,30.43,NE,56,2.0,7.0,45,0.00,,,0.00,,2013-05-03 15:53:00,
2013-05-03 12:03:00,60.0,38.0,30.42,ENE,60,2.0,8.0,44,0.00,,,0.00,,2013-05-03 16:03:00,
2013-05-03 12:13:00,60.0,38.0,30.42,ENE,60,2.0,8.0,44,0.00,,,0.00,,2013-05-03 16:13:00,
2013-05-03 12:23:00,61.0,38.0,30.42,ESE,103,2.0,10.0,43,0.00,,,0.00,,2013-05-03 16:23:00,
2013-05-03 12:33:00,61.0,37.0,30.41,NW,314,2.0,8.0,41,0.00,,,0.00,,2013-05-03 16:33:00,
2013-05-03 12:42:00,61.0,37.0,30.41,NW,314,2.0,8.0,41,0.00,,,0.00,,2013-05-03 16:42:00,
2013-05-03 12:52:00,61.0,38.0,30.40,SSE,167,3.0,11.0,42,0.00,,,0.00,,2013-05-03 16:52:00,
2013-05-03 13:02:00,61.0,40.0,30.40,SE,145,3.0,9.0,45,0.00,,,0.00,,2013-05-03 17:02:00,
2013-05-03 13:12:00,61.0,40.0,30.40,SE,145,3.0,9.0,45,0.00,,,0.00,,2013-05-03 17:12:00,
2013-05-03 13:23:00,60.0,40.0,30.40,South,183,2.0,10.0,48,0.00,,,0.00,,2013-05-03 17:23:00,
2013-05-03 13:32:00,61.0,42.0,30.40,South,187,4.0,9.0,49,0.00,,,0.00,,2013-05-03 17:32:00,
2013-05-03 13:42:00,61.0,42.0,30.40,South,187,4.0,9.0,49,0.00,,,0.00,,2013-05-03 17:42:00,
2013-05-03 13:52:00,61.0,42.0,30.40,South,184,4.0,10.0,50,0.00,,,0.00,,2013-05-03 17:52:00,
2013-05-03 14:01:00,60.0,41.0,30.40,SE,145,4.0,10.0,50,0.00,,,0.00,,2013-05-03 18:01:00,
2013-05-03 14:12:00,60.0,41.0,30.40,SE,145,4.0,10.0,50,0.00,,,0.00,,2013-05-03 18:12:00,
2013-05-03 14:22:00,61.0,41.0,30.40,SSW,195,4.0,8.0,48,0.00,,,0.00,,2013-05-03 18:22:00,
2013-05-03 14:32:00,60.0,42.0,30.40,SSE,167,3.0,11.0,52,0.00,,,0.00,,2013-05-03 18:32:00,
2013-05-03 14:42:00,60.0,42.0,30.40,SSE,167,3.0,11.0,52,0.00,,,0.00,,2013-05-03 18:42:00,
2013-05-03 14:51:00,60.0,42.0,30.39,South,181,5.0,10.0,52,0.00,,,0.00,,2013-05-03 18:51:00,
2013-05-03 15:01:00,59.0,41.0,30.39,SSW,199,4.0,9.0,52,0.00,,,0.00,,2013-05-03 19:01:00,
2013-05-03 15:11:00,59.0,41.0,30.39,SSW,199,4.0,9.0,52,0.00,,,0.00,,2013-05-03 19:11:00,
2013-05-03 15:21:00,60.0,42.0,30.39,SSE,155,4.0,11.0,51,0.00,,,0.00,,2013-05-03 19:21:00,
2013-05-03 15:32:00,59.0,41.0,30.38,South,174,4.0,10.0,51,0.00,,,0.00,,2013-05-03 19:32:00,
2013-05-03 15:42:00,59.0,41.0,30.38,South,174,4.0,10.0,51,0.00,,,0.00,,2013-05-03 19:42:00,
2013-05-03 15:52:00,58.0,40.0,30.38,South,172,5.0,10.0,51,0.00,,,0.00,,2013-05-03 19:52:00,
2013-05-03 16:02:00,58.0,40.0,30.37,South,172,3.0,11.0,52,0.00,,,0.00,,2013-05-03 20:02:00,
2013-05-03 16:12:00,58.0,40.0,30.37,South,172,3.0,11.0,52,0.00,,,0.00,,2013-05-03 20:12:00,
2013-05-03 16:21:00,58.0,41.0,30.37,South,183,3.0,10.0,53,0.00,,,0.00,,2013-05-03 20:21:00,
2013-05-03 16:32:00,58.0,41.0,30.37,SE,142,5.0,11.0,54,0.00,,,0.00,,2013-05-03 20:32:00,
2013-05-03 16:42:00,58.0,41.0,30.37,SE,142,5.0,11.0,54,0.00,,,0.00,,2013-05-03 20:42:00,
2013-05-03 16:52:00,58.0,41.0,30.37,SSE,161,5.0,13.0,53,0.00,,,0.00,,2013-05-03 20:52:00,
2013-05-03 17:02:00,56.0,42.0,30.37,SE,131,5.0,13.0,59,0.00,,,0.00,,2013-05-03 21:02:00,
2013-05-03 17:11:00,56.0,42.0,30.37,SE,131,5.0,13.0,59,0.00,,,0.00,,2013-05-03 21:11:00,
2013-05-03 17:22:00,55.0,42.0,30.36,SW,223,3.0,13.0,62,0.00,,,0.00,,2013-05-03 21:22:00,
2013-05-03 17:33:00,56.0,43.0,30.36,SSE,148,5.0,12.0,62,0.00,,,0.00,,2013-05-03 21:33:00,
2013-05-03 17:42:00,56.0,43.0,30.36,SSE,148,5.0,12.0,62,0.00,,,0.00,,2013-05-03 21:42:00,
2013-05-03 17:52:00,56.0,44.0,30.36,South,177,3.0,11.0,63,0.00,,,0.00,,2013-05-03 21:52:00,
2013-05-03 18:03:00,56.0,44.0,30.36,SW,214,4.0,9.0,63,0.00,,,0.00,,2013-05-03 22:03:00,
2013-05-03 18:13:00,56.0,44.0,30.36,SW,214,4.0,9.0,63,0.00,,,0.00,,2013-05-03 22:13:00,
2013-05-03 18:22:00,55.0,43.0,30.36,ESE,102,5.0,9.0,63,0.00,,,0.00,,2013-05-03 22:22:00,
2013-05-03 18:32:00,55.0,43.0,30.36,South,177,3.0,10.0,65,0.00,,,0.00,,2013-05-03 22:32:00,
2013-05-03 18:42:00,55.0,43.0,30.36,South,177,3.0,10.0,65,0.00,,,0.00,,2013-05-03 22:42:00,
2013-05-03 18:52:00,54.0,43.0,30.35,SSE,166,4.0,9.0,66,0.00,,,0.00,,2013-05-03 22:52:00,
2013-05-03 19:02:00,54.0,43.0,30.36,SSW,198,2.0,9.0,66,0.00,,,0.00,,2013-05-03 23:02:00,
2013-05-03 19:11:00,54.0,43.0,30.36,SSW,198,2.0,9.0,66,0.00,,,0.00,,2013-05-03 23:11:00,
2013-05-03 19:22:00,53.0,43.0,30.36,SSE,149,4.0,9.0,69,0.00,,,0.00,,2013-05-03 23:22:00,
2013-05-03 19:32:00,52.0,43.0,30.36,SSE,153,1.0,11.0,72,0.00,,,0.00,,2013-05-03 23:32:00,
2013-05-03 19:41:00,52.0,43.0,30.36,SSE,153,1.0,11.0,72,0.00,,,0.00,,2013-05-03 23:41:00,
2013-05-03 19:52:00,52.0,43.0,30.36,SSE,159,3.0,8.0,72,0.00,,,0.00,,2013-05-03 23:52:00,
2013-05-03 20:01:00,51.0,43.0,30.36,SSE,167,1.0,7.0,74,0.00,,,0.00,,2013-05-04 00:01:00,
2013-05-03 20:11:00,51.0,43.0,30.36,SSE,167,1.0,7.0,74,0.00,,,0.00,,2013-05-04 00:11:00,
2013-05-03 20:23:00,51.0,43.0,30.37,SSE,162,3.0,6.0,74,0.00,,,0.00,,2013-05-04 00:23:00,
2013-05-03 20:32:00,51.0,43.0,30.37,South,187,3.0,7.0,75,0.00,,,0.00,,2013-05-04 00:32:00,
2013-05-03 20:42:00,51.0,43.0,30.37,South,187,3.0,7.0,75,0.00,,,0.00,,2013-05-04 00:42:00,
2013-05-03 20:52:00,51.0,43.0,30.37,SSE,148,2.0,7.0,75,0.00,,,0.00,,2013-05-04 00:52:00,
2013-05-03 21:01:00,51.0,44.0,30.37,SE,143,3.0,6.0,76,0.00,,,0.00,,2013-05-04 01:01:00,
2013-05-03 21:11:00,51.0,44.0,30.37,SE,143,3.0,6.0,76,0.00,,,0.00,,2013-05-04 01:11:00,
2013-05-03 21:21:00,50.0,43.0,30.37,SE,146,3.0,7.0,76,0.00,,,0.00,,2013-05-04 01:21:00,
2013-05-03 21:32:00,50.0,43.0,30.38,South,169,1.0,5.0,77,0.00,,,0.00,,2013-05-04 01:32:00,
2013-05-03 21:42:00,50.0,43.0,30.38,South,169,1.0,5.0,77,0.00,,,0.00,,2013-05-04 01:42:00,
2013-05-03 21:52:00,50.0,43.0,30.37,South,183,2.0,5.0,78,0.00,,,0.00,,2013-05-04 01:52:00,
2013-05-03 22:02:00,50.0,44.0,30.37,SSE,152,0.0,4.0,79,0.00,,,0.00,,2013-05-04 02:02:00,
2013-05-03 22:11:00,50.0,44.0,30.37,SSE,152,0.0,4.0,79,0.00,,,0.00,,2013-05-04 02:11:00,
2013-05-03 22:21:00,50.0,44.0,30.37,SSW,200,0.0,4.0,79,0.00,,,0.00,,2013-05-04 02:21:00,
2013-05-03 22:32:00,50.0,44.0,30.37,SSE,155,2.0,5.0,79,0.00,,,0.00,,2013-05-04 02:32:00,
2013-05-03 22:42:00,50.0,44.0,30.37,SSE,155,2.0,5.0,79,0.00,,,0.00,,2013-05-04 02:42:00,
2013-05-03 22:52:00,50.0,44.0,30.37,SSE,166,3.0,7.0,79,0.00,,,0.00,,2013-05-04 02:52:00,
2013-05-03 23:02:00,49.0,43.0,30.37,SSE,150,3.0,5.0,80,0.00,,,0.00,,2013-05-04 03:02:00,
2013-05-03 23:11:00,49.0,43.0,30.37,SSE,150,3.0,5.0,80,0.00,,,0.00,,2013-05-04 03:11:00,
2013-05-03 23:22:00,49.0,43.0,30.37,SSE,162,1.0,3.0,81,0.00,,,0.00,,2013-05-04 03:22:00,
2013-05-03 23:33:00,49.0,43.0,30.37,SSE,153,1.0,3.0,81,0.00,,,0.00,,2013-05-04 03:33:00,
2013-05-03 23:43:00,49.0,43.0,30.37,SSE,153,1.0,3.0,81,0.00,,,0.00,,2013-05-04 03:43:00,
2013-05-03 23:52:00,49.0,44.0,30.36,SSE,148,0.0,2.0,82,0.00,,,0.00,,2013-05-04 03:52:00,